sensor_id;sensor_type;location;lat;lon;timestamp;temperature;humidity
21495;DHT22;10909;53.590;10.054;2023-04-28T00:00:28;10.70;60.20
21495;DHT22;10909;53.590;10.054;2023-04-28T00:02:54;10.60;60.20
21495;DHT22;10909;53.590;10.054;2023-04-28T00:05:20;10.60;60.40
21495;DHT22;10909;53.590;10.054;2023-04-28T00:07:52;10.60;60.50
21495;DHT22;10909;53.590;10.054;2023-04-28T00:10:18;10.50;60.50
21495;DHT22;10909;53.590;10.054;2023-04-28T00:12:43;10.50;60.60
21495;DHT22;10909;53.590;10.054;2023-04-28T00:15:09;10.50;60.50
21495;DHT22;10909;53.590;10.054;2023-04-28T00:17:35;10.50;60.60
21495;DHT22;10909;53.590;10.054;2023-04-28T00:20:08;10.50;60.60
21495;DHT22;10909;53.590;10.054;2023-04-28T00:22:40;10.50;60.70
21495;DHT22;10909;53.590;10.054;2023-04-28T00:25:06;10.50;60.70
21495;DHT22;10909;53.590;10.054;2023-04-28T00:27:33;10.50;60.70
21495;DHT22;10909;53.590;10.054;2023-04-28T00:30:06;10.50;60.60
21495;DHT22;10909;53.590;10.054;2023-04-28T00:32:32;10.40;60.50
21495;DHT22;10909;53.590;10.054;2023-04-28T00:34:58;10.40;60.60
21495;DHT22;10909;53.590;10.054;2023-04-28T00:37:23;10.40;60.60
21495;DHT22;10909;53.590;10.054;2023-04-28T00:39:54;10.40;60.60
21495;DHT22;10909;53.590;10.054;2023-04-28T00:42:20;10.30;60.50
21495;DHT22;10909;53.590;10.054;2023-04-28T00:44:45;10.30;60.60
21495;DHT22;10909;53.590;10.054;2023-04-28T00:47:16;10.30;60.50
21495;DHT22;10909;53.590;10.054;2023-04-28T00:49:44;10.30;60.70
21495;DHT22;10909;53.590;10.054;2023-04-28T00:52:12;10.20;60.50
21495;DHT22;10909;53.590;10.054;2023-04-28T00:54:37;10.20;60.60
21495;DHT22;10909;53.590;10.054;2023-04-28T00:57:03;10.20;60.60
21495;DHT22;10909;53.590;10.054;2023-04-28T00:59:30;10.10;60.70
21495;DHT22;10909;53.590;10.054;2023-04-28T01:01:56;10.10;60.70
21495;DHT22;10909;53.590;10.054;2023-04-28T01:04:22;10.10;60.80
21495;DHT22;10909;53.590;10.054;2023-04-28T01:06:49;10.00;60.70
21495;DHT22;10909;53.590;10.054;2023-04-28T01:09:16;10.00;60.70
21495;DHT22;10909;53.590;10.054;2023-04-28T01:11:42;9.90;60.80
21495;DHT22;10909;53.590;10.054;2023-04-28T01:14:08;9.90;60.80
21495;DHT22;10909;53.590;10.054;2023-04-28T01:16:33;9.90;60.80
21495;DHT22;10909;53.590;10.054;2023-04-28T01:19:00;9.90;60.90
21495;DHT22;10909;53.590;10.054;2023-04-28T01:21:26;9.80;60.90
21495;DHT22;10909;53.590;10.054;2023-04-28T01:24:00;9.80;61.10
21495;DHT22;10909;53.590;10.054;2023-04-28T01:26:26;9.80;61.20
21495;DHT22;10909;53.590;10.054;2023-04-28T01:28:52;9.80;61.00
21495;DHT22;10909;53.590;10.054;2023-04-28T01:31:18;9.80;61.10
21495;DHT22;10909;53.590;10.054;2023-04-28T01:33:44;9.70;61.10
21495;DHT22;10909;53.590;10.054;2023-04-28T01:36:10;9.70;61.10
21495;DHT22;10909;53.590;10.054;2023-04-28T01:38:36;9.60;61.10
21495;DHT22;10909;53.590;10.054;2023-04-28T01:41:02;9.60;61.30
21495;DHT22;10909;53.590;10.054;2023-04-28T01:43:28;9.70;61.30
21495;DHT22;10909;53.590;10.054;2023-04-28T01:45:54;9.60;61.30
21495;DHT22;10909;53.590;10.054;2023-04-28T01:48:19;9.50;61.40
21495;DHT22;10909;53.590;10.054;2023-04-28T01:50:45;9.50;61.40
21495;DHT22;10909;53.590;10.054;2023-04-28T01:53:11;9.50;61.50
21495;DHT22;10909;53.590;10.054;2023-04-28T01:55:37;9.50;61.50
21495;DHT22;10909;53.590;10.054;2023-04-28T01:58:03;9.40;61.50
21495;DHT22;10909;53.590;10.054;2023-04-28T02:00:29;9.40;61.50
21495;DHT22;10909;53.590;10.054;2023-04-28T02:02:55;9.40;61.60
21495;DHT22;10909;53.590;10.054;2023-04-28T02:05:21;9.40;61.60
21495;DHT22;10909;53.590;10.054;2023-04-28T02:07:46;9.30;61.60
21495;DHT22;10909;53.590;10.054;2023-04-28T02:10:12;9.30;61.60
21495;DHT22;10909;53.590;10.054;2023-04-28T02:12:40;9.30;61.70
21495;DHT22;10909;53.590;10.054;2023-04-28T02:15:07;9.30;61.90
21495;DHT22;10909;53.590;10.054;2023-04-28T02:17:33;9.20;61.80
21495;DHT22;10909;53.590;10.054;2023-04-28T02:19:59;9.20;61.90
21495;DHT22;10909;53.590;10.054;2023-04-28T02:22:24;9.20;62.00
21495;DHT22;10909;53.590;10.054;2023-04-28T02:24:50;9.10;61.90
21495;DHT22;10909;53.590;10.054;2023-04-28T02:27:16;9.10;62.00
21495;DHT22;10909;53.590;10.054;2023-04-28T02:29:42;9.10;62.00
21495;DHT22;10909;53.590;10.054;2023-04-28T02:32:08;9.10;62.20
21495;DHT22;10909;53.590;10.054;2023-04-28T02:34:33;9.00;62.20
21495;DHT22;10909;53.590;10.054;2023-04-28T02:36:59;9.00;62.20
21495;DHT22;10909;53.590;10.054;2023-04-28T02:39:25;9.00;62.30
21495;DHT22;10909;53.590;10.054;2023-04-28T02:41:52;8.90;62.40
21495;DHT22;10909;53.590;10.054;2023-04-28T02:44:19;8.90;62.30
21495;DHT22;10909;53.590;10.054;2023-04-28T02:46:45;8.90;62.40
21495;DHT22;10909;53.590;10.054;2023-04-28T02:49:11;8.90;62.50
21495;DHT22;10909;53.590;10.054;2023-04-28T02:51:37;8.90;62.60
21495;DHT22;10909;53.590;10.054;2023-04-28T02:54:03;8.80;62.50
21495;DHT22;10909;53.590;10.054;2023-04-28T02:56:29;8.80;62.70
21495;DHT22;10909;53.590;10.054;2023-04-28T02:58:55;8.80;62.70
21495;DHT22;10909;53.590;10.054;2023-04-28T03:01:21;8.70;62.70
21495;DHT22;10909;53.590;10.054;2023-04-28T03:03:47;8.70;62.80
21495;DHT22;10909;53.590;10.054;2023-04-28T03:06:12;8.70;62.90
21495;DHT22;10909;53.590;10.054;2023-04-28T03:08:38;8.70;62.90
21495;DHT22;10909;53.590;10.054;2023-04-28T03:11:04;8.60;62.90
21495;DHT22;10909;53.590;10.054;2023-04-28T03:13:30;8.60;62.80
21495;DHT22;10909;53.590;10.054;2023-04-28T03:15:56;8.60;63.00
21495;DHT22;10909;53.590;10.054;2023-04-28T03:18:21;8.60;63.00
21495;DHT22;10909;53.590;10.054;2023-04-28T03:20:48;8.50;63.00
21495;DHT22;10909;53.590;10.054;2023-04-28T03:23:14;8.50;63.90
21495;DHT22;10909;53.590;10.054;2023-04-28T03:25:40;8.50;63.20
21495;DHT22;10909;53.590;10.054;2023-04-28T03:28:06;8.50;63.20
21495;DHT22;10909;53.590;10.054;2023-04-28T03:30:31;8.50;63.10
21495;DHT22;10909;53.590;10.054;2023-04-28T03:32:57;8.50;63.10
21495;DHT22;10909;53.590;10.054;2023-04-28T03:35:23;8.50;63.20
21495;DHT22;10909;53.590;10.054;2023-04-28T03:37:48;8.50;63.20
21495;DHT22;10909;53.590;10.054;2023-04-28T03:40:14;8.40;63.10
21495;DHT22;10909;53.590;10.054;2023-04-28T03:42:40;8.40;63.20
21495;DHT22;10909;53.590;10.054;2023-04-28T03:45:07;8.50;63.20
21495;DHT22;10909;53.590;10.054;2023-04-28T03:47:32;8.40;63.30
21495;DHT22;10909;53.590;10.054;2023-04-28T03:49:58;8.40;63.20
21495;DHT22;10909;53.590;10.054;2023-04-28T03:52:24;8.40;63.20
21495;DHT22;10909;53.590;10.054;2023-04-28T03:54:50;8.40;63.30
21495;DHT22;10909;53.590;10.054;2023-04-28T03:57:16;8.40;63.30
21495;DHT22;10909;53.590;10.054;2023-04-28T03:59:42;8.30;63.30
21495;DHT22;10909;53.590;10.054;2023-04-28T04:02:09;8.40;63.50
21495;DHT22;10909;53.590;10.054;2023-04-28T04:04:34;8.30;63.40
21495;DHT22;10909;53.590;10.054;2023-04-28T04:07:00;8.30;63.50
21495;DHT22;10909;53.590;10.054;2023-04-28T04:09:28;8.30;63.50
21495;DHT22;10909;53.590;10.054;2023-04-28T04:11:54;8.30;63.60
21495;DHT22;10909;53.590;10.054;2023-04-28T04:14:20;8.20;63.60
21495;DHT22;10909;53.590;10.054;2023-04-28T04:16:46;8.20;63.60
21495;DHT22;10909;53.590;10.054;2023-04-28T04:19:12;8.20;63.70
21495;DHT22;10909;53.590;10.054;2023-04-28T04:21:38;8.20;63.90
21495;DHT22;10909;53.590;10.054;2023-04-28T04:24:03;8.20;63.90
21495;DHT22;10909;53.590;10.054;2023-04-28T04:26:29;8.20;64.00
21495;DHT22;10909;53.590;10.054;2023-04-28T04:28:55;8.20;64.10
21495;DHT22;10909;53.590;10.054;2023-04-28T04:31:21;8.20;64.00
21495;DHT22;10909;53.590;10.054;2023-04-28T04:33:47;8.30;64.00
21495;DHT22;10909;53.590;10.054;2023-04-28T04:36:13;8.20;64.10
21495;DHT22;10909;53.590;10.054;2023-04-28T04:38:39;8.30;64.10
21495;DHT22;10909;53.590;10.054;2023-04-28T04:41:05;8.30;64.10
21495;DHT22;10909;53.590;10.054;2023-04-28T04:43:31;8.30;64.20
21495;DHT22;10909;53.590;10.054;2023-04-28T04:45:56;8.30;64.10
21495;DHT22;10909;53.590;10.054;2023-04-28T04:48:22;8.30;64.10
21495;DHT22;10909;53.590;10.054;2023-04-28T04:50:48;8.30;64.20
21495;DHT22;10909;53.590;10.054;2023-04-28T04:53:14;8.30;64.20
21495;DHT22;10909;53.590;10.054;2023-04-28T04:55:39;8.40;64.20
21495;DHT22;10909;53.590;10.054;2023-04-28T04:58:05;8.40;64.20
21495;DHT22;10909;53.590;10.054;2023-04-28T05:00:31;8.40;64.20
21495;DHT22;10909;53.590;10.054;2023-04-28T05:02:57;8.40;64.10
21495;DHT22;10909;53.590;10.054;2023-04-28T05:05:23;8.50;64.10
21495;DHT22;10909;53.590;10.054;2023-04-28T05:07:49;8.50;63.90
21495;DHT22;10909;53.590;10.054;2023-04-28T05:10:15;8.50;63.80
21495;DHT22;10909;53.590;10.054;2023-04-28T05:12:48;8.50;63.70
21495;DHT22;10909;53.590;10.054;2023-04-28T05:15:16;8.60;63.70
21495;DHT22;10909;53.590;10.054;2023-04-28T05:17:41;8.60;63.60
21495;DHT22;10909;53.590;10.054;2023-04-28T05:20:08;8.60;63.60
21495;DHT22;10909;53.590;10.054;2023-04-28T05:22:34;8.70;63.60
21495;DHT22;10909;53.590;10.054;2023-04-28T05:24:59;8.70;63.50
21495;DHT22;10909;53.590;10.054;2023-04-28T05:27:25;8.70;63.40
21495;DHT22;10909;53.590;10.054;2023-04-28T05:29:51;8.70;63.30
21495;DHT22;10909;53.590;10.054;2023-04-28T05:32:17;8.80;63.30
21495;DHT22;10909;53.590;10.054;2023-04-28T05:34:42;8.80;63.20
21495;DHT22;10909;53.590;10.054;2023-04-28T05:37:08;8.90;63.20
21495;DHT22;10909;53.590;10.054;2023-04-28T05:39:36;8.90;63.10
21495;DHT22;10909;53.590;10.054;2023-04-28T05:42:02;9.00;63.10
21495;DHT22;10909;53.590;10.054;2023-04-28T05:44:29;9.00;63.10
21495;DHT22;10909;53.590;10.054;2023-04-28T05:46:55;9.00;62.90
21495;DHT22;10909;53.590;10.054;2023-04-28T05:49:21;9.10;62.90
21495;DHT22;10909;53.590;10.054;2023-04-28T05:51:47;9.10;62.60
21495;DHT22;10909;53.590;10.054;2023-04-28T05:54:12;9.20;62.70
21495;DHT22;10909;53.590;10.054;2023-04-28T05:56:38;9.20;62.30
21495;DHT22;10909;53.590;10.054;2023-04-28T05:59:04;9.20;62.30
21495;DHT22;10909;53.590;10.054;2023-04-28T06:01:30;9.30;62.50
21495;DHT22;10909;53.590;10.054;2023-04-28T06:03:56;9.40;62.50
21495;DHT22;10909;53.590;10.054;2023-04-28T06:06:24;9.40;62.30
21495;DHT22;10909;53.590;10.054;2023-04-28T06:08:50;9.50;62.30
21495;DHT22;10909;53.590;10.054;2023-04-28T06:11:16;9.60;62.00
21495;DHT22;10909;53.590;10.054;2023-04-28T06:13:44;9.70;62.10
21495;DHT22;10909;53.590;10.054;2023-04-28T06:16:10;9.70;61.90
21495;DHT22;10909;53.590;10.054;2023-04-28T06:18:35;9.80;61.90
21495;DHT22;10909;53.590;10.054;2023-04-28T06:21:01;9.90;61.70
21495;DHT22;10909;53.590;10.054;2023-04-28T06:23:28;10.00;61.60
21495;DHT22;10909;53.590;10.054;2023-04-28T06:25:56;10.10;61.40
21495;DHT22;10909;53.590;10.054;2023-04-28T06:28:22;10.20;61.30
21495;DHT22;10909;53.590;10.054;2023-04-28T06:30:47;10.30;60.90
21495;DHT22;10909;53.590;10.054;2023-04-28T06:33:13;10.40;60.70
21495;DHT22;10909;53.590;10.054;2023-04-28T06:35:42;10.40;60.20
21495;DHT22;10909;53.590;10.054;2023-04-28T06:38:08;10.50;60.30
21495;DHT22;10909;53.590;10.054;2023-04-28T06:40:34;10.60;59.80
21495;DHT22;10909;53.590;10.054;2023-04-28T06:42:59;10.70;59.90
21495;DHT22;10909;53.590;10.054;2023-04-28T06:45:25;10.80;59.90
21495;DHT22;10909;53.590;10.054;2023-04-28T06:47:52;10.90;59.60
21495;DHT22;10909;53.590;10.054;2023-04-28T06:50:20;11.00;59.40
21495;DHT22;10909;53.590;10.054;2023-04-28T06:52:46;11.10;58.70
21495;DHT22;10909;53.590;10.054;2023-04-28T06:55:14;11.20;59.10
21495;DHT22;10909;53.590;10.054;2023-04-28T06:57:40;11.20;58.80
21495;DHT22;10909;53.590;10.054;2023-04-28T07:00:07;11.30;58.60
21495;DHT22;10909;53.590;10.054;2023-04-28T07:02:33;11.40;58.60
21495;DHT22;10909;53.590;10.054;2023-04-28T07:04:59;11.50;58.00
21495;DHT22;10909;53.590;10.054;2023-04-28T07:07:25;11.50;58.00
21495;DHT22;10909;53.590;10.054;2023-04-28T07:09:51;11.60;58.20
21495;DHT22;10909;53.590;10.054;2023-04-28T07:12:18;11.70;57.60
21495;DHT22;10909;53.590;10.054;2023-04-28T07:14:43;11.70;57.20
21495;DHT22;10909;53.590;10.054;2023-04-28T07:17:09;11.80;57.30
21495;DHT22;10909;53.590;10.054;2023-04-28T07:19:35;11.90;57.30
21495;DHT22;10909;53.590;10.054;2023-04-28T07:22:00;12.00;57.30
21495;DHT22;10909;53.590;10.054;2023-04-28T07:24:26;12.10;57.60
21495;DHT22;10909;53.590;10.054;2023-04-28T07:26:52;12.20;57.40
21495;DHT22;10909;53.590;10.054;2023-04-28T07:29:18;12.30;56.90
21495;DHT22;10909;53.590;10.054;2023-04-28T07:31:44;12.40;56.90
21495;DHT22;10909;53.590;10.054;2023-04-28T07:34:10;12.40;57.00
21495;DHT22;10909;53.590;10.054;2023-04-28T07:36:36;12.50;56.90
21495;DHT22;10909;53.590;10.054;2023-04-28T07:39:01;12.60;56.70
21495;DHT22;10909;53.590;10.054;2023-04-28T07:44:50;12.80;55.90
21495;DHT22;10909;53.590;10.054;2023-04-28T07:47:17;13.00;55.90
21495;DHT22;10909;53.590;10.054;2023-04-28T07:49:43;13.10;56.10
21495;DHT22;10909;53.590;10.054;2023-04-28T07:52:08;13.20;55.30
21495;DHT22;10909;53.590;10.054;2023-04-28T07:54:34;13.20;55.30
21495;DHT22;10909;53.590;10.054;2023-04-28T07:57:01;13.40;55.30
21495;DHT22;10909;53.590;10.054;2023-04-28T07:59:32;13.50;55.10
21495;DHT22;10909;53.590;10.054;2023-04-28T08:01:58;13.50;55.20
21495;DHT22;10909;53.590;10.054;2023-04-28T08:04:25;13.60;55.10
21495;DHT22;10909;53.590;10.054;2023-04-28T08:06:50;13.70;54.80
21495;DHT22;10909;53.590;10.054;2023-04-28T08:09:16;13.80;54.80
21495;DHT22;10909;53.590;10.054;2023-04-28T08:11:41;13.90;54.30
21495;DHT22;10909;53.590;10.054;2023-04-28T08:14:09;14.00;54.90
21495;DHT22;10909;53.590;10.054;2023-04-28T08:16:35;14.10;54.00
21495;DHT22;10909;53.590;10.054;2023-04-28T08:19:02;14.20;53.10
21495;DHT22;10909;53.590;10.054;2023-04-28T08:21:28;14.30;53.10
21495;DHT22;10909;53.590;10.054;2023-04-28T08:23:54;14.40;53.40
21495;DHT22;10909;53.590;10.054;2023-04-28T08:26:20;14.50;53.10
21495;DHT22;10909;53.590;10.054;2023-04-28T08:28:45;14.50;52.80
21495;DHT22;10909;53.590;10.054;2023-04-28T08:31:12;14.60;53.30
21495;DHT22;10909;53.590;10.054;2023-04-28T08:33:38;14.80;53.60
21495;DHT22;10909;53.590;10.054;2023-04-28T08:36:08;14.90;53.30
21495;DHT22;10909;53.590;10.054;2023-04-28T08:38:36;15.00;53.00
21495;DHT22;10909;53.590;10.054;2023-04-28T08:41:15;15.10;53.20
21495;DHT22;10909;53.590;10.054;2023-04-28T08:43:46;15.20;52.00
21495;DHT22;10909;53.590;10.054;2023-04-28T08:46:13;15.20;51.90
21495;DHT22;10909;53.590;10.054;2023-04-28T08:48:43;15.30;51.90
21495;DHT22;10909;53.590;10.054;2023-04-28T08:51:24;15.40;51.20
21495;DHT22;10909;53.590;10.054;2023-04-28T08:53:53;15.40;50.80
21495;DHT22;10909;53.590;10.054;2023-04-28T08:56:23;15.40;51.80
21495;DHT22;10909;53.590;10.054;2023-04-28T08:58:51;15.50;50.90
21495;DHT22;10909;53.590;10.054;2023-04-28T09:01:17;15.50;51.50
21495;DHT22;10909;53.590;10.054;2023-04-28T09:03:46;15.60;51.40
21495;DHT22;10909;53.590;10.054;2023-04-28T09:06:14;15.60;51.40
21495;DHT22;10909;53.590;10.054;2023-04-28T09:08:46;15.70;50.40
21495;DHT22;10909;53.590;10.054;2023-04-28T09:11:11;15.80;50.90
21495;DHT22;10909;53.590;10.054;2023-04-28T09:13:38;15.80;51.00
21495;DHT22;10909;53.590;10.054;2023-04-28T09:16:05;15.80;49.40
21495;DHT22;10909;53.590;10.054;2023-04-28T09:18:31;15.80;50.20
21495;DHT22;10909;53.590;10.054;2023-04-28T09:21:10;15.90;50.80
21495;DHT22;10909;53.590;10.054;2023-04-28T09:23:47;16.00;50.20
21495;DHT22;10909;53.590;10.054;2023-04-28T09:26:13;16.00;50.00
21495;DHT22;10909;53.590;10.054;2023-04-28T09:28:39;16.10;50.30
21495;DHT22;10909;53.590;10.054;2023-04-28T09:31:05;16.10;50.40
21495;DHT22;10909;53.590;10.054;2023-04-28T09:33:32;16.10;49.60
21495;DHT22;10909;53.590;10.054;2023-04-28T09:35:58;16.10;49.70
21495;DHT22;10909;53.590;10.054;2023-04-28T09:38:23;16.20;49.90
21495;DHT22;10909;53.590;10.054;2023-04-28T09:41:01;16.20;50.20
21495;DHT22;10909;53.590;10.054;2023-04-28T09:45:55;16.30;50.00
21495;DHT22;10909;53.590;10.054;2023-04-28T09:48:32;16.30;50.00
21495;DHT22;10909;53.590;10.054;2023-04-28T09:50:59;16.40;49.50
21495;DHT22;10909;53.590;10.054;2023-04-28T09:53:26;16.40;50.00
21495;DHT22;10909;53.590;10.054;2023-04-28T09:55:53;16.50;49.70
21495;DHT22;10909;53.590;10.054;2023-04-28T09:58:20;16.50;49.70
21495;DHT22;10909;53.590;10.054;2023-04-28T10:00:58;16.60;50.00
21495;DHT22;10909;53.590;10.054;2023-04-28T10:03:26;16.70;50.00
21495;DHT22;10909;53.590;10.054;2023-04-28T10:05:53;16.80;50.00
21495;DHT22;10909;53.590;10.054;2023-04-28T10:08:20;16.90;49.50
21495;DHT22;10909;53.590;10.054;2023-04-28T10:10:47;17.00;49.50
21495;DHT22;10909;53.590;10.054;2023-04-28T10:13:17;17.10;49.60
21495;DHT22;10909;53.590;10.054;2023-04-28T10:15:44;17.30;49.20
21495;DHT22;10909;53.590;10.054;2023-04-28T10:18:12;17.30;49.20
21495;DHT22;10909;53.590;10.054;2023-04-28T10:20:48;17.30;49.20
21495;DHT22;10909;53.590;10.054;2023-04-28T10:26:16;17.50;48.80
21495;DHT22;10909;53.590;10.054;2023-04-28T10:28:46;17.40;48.70
21495;DHT22;10909;53.590;10.054;2023-04-28T10:31:27;17.50;47.70
21495;DHT22;10909;53.590;10.054;2023-04-28T10:33:53;17.50;45.50
21495;DHT22;10909;53.590;10.054;2023-04-28T10:36:51;17.50;47.00
21495;DHT22;10909;53.590;10.054;2023-04-28T10:39:33;17.50;45.80
21495;DHT22;10909;53.590;10.054;2023-04-28T10:41:59;17.40;46.20
21495;DHT22;10909;53.590;10.054;2023-04-28T10:47:05;17.40;47.20
21495;DHT22;10909;53.590;10.054;2023-04-28T10:55:26;17.50;45.90
21495;DHT22;10909;53.590;10.054;2023-04-28T11:00:41;17.70;46.60
21495;DHT22;10909;53.590;10.054;2023-04-28T11:06:21;17.80;46.00
21495;DHT22;10909;53.590;10.054;2023-04-28T11:11:30;17.90;46.80
21495;DHT22;10909;53.590;10.054;2023-04-28T11:19:26;18.20;46.00
21495;DHT22;10909;53.590;10.054;2023-04-28T11:21:54;18.20;46.60
21495;DHT22;10909;53.590;10.054;2023-04-28T11:24:24;18.20;46.50
21495;DHT22;10909;53.590;10.054;2023-04-28T11:26:50;18.30;46.30
21495;DHT22;10909;53.590;10.054;2023-04-28T11:29:21;18.40;47.50
21495;DHT22;10909;53.590;10.054;2023-04-28T11:31:55;18.40;45.40
21495;DHT22;10909;53.590;10.054;2023-04-28T11:34:21;18.50;46.60
21495;DHT22;10909;53.590;10.054;2023-04-28T11:36:48;18.60;46.50
21495;DHT22;10909;53.590;10.054;2023-04-28T11:39:13;18.50;45.90
21495;DHT22;10909;53.590;10.054;2023-04-28T11:41:44;18.60;46.10
21495;DHT22;10909;53.590;10.054;2023-04-28T11:44:14;18.60;45.90
21495;DHT22;10909;53.590;10.054;2023-04-28T11:46:49;18.60;45.70
21495;DHT22;10909;53.590;10.054;2023-04-28T11:49:25;18.70;45.50
21495;DHT22;10909;53.590;10.054;2023-04-28T11:52:04;18.70;44.50
21495;DHT22;10909;53.590;10.054;2023-04-28T11:54:35;18.80;45.60
21495;DHT22;10909;53.590;10.054;2023-04-28T11:57:03;18.80;45.90
21495;DHT22;10909;53.590;10.054;2023-04-28T11:59:34;18.80;45.70
21495;DHT22;10909;53.590;10.054;2023-04-28T12:02:04;18.80;45.10
21495;DHT22;10909;53.590;10.054;2023-04-28T12:04:39;18.80;44.20
21495;DHT22;10909;53.590;10.054;2023-04-28T12:07:16;18.80;44.90
21495;DHT22;10909;53.590;10.054;2023-04-28T12:10:28;18.70;44.70
21495;DHT22;10909;53.590;10.054;2023-04-28T12:12:34;18.70;44.60
21495;DHT22;10909;53.590;10.054;2023-04-28T12:15:04;18.70;44.20
21495;DHT22;10909;53.590;10.054;2023-04-28T12:17:36;18.60;44.50
21495;DHT22;10909;53.590;10.054;2023-04-28T12:20:11;18.60;44.70
21495;DHT22;10909;53.590;10.054;2023-04-28T12:22:48;18.50;45.20
21495;DHT22;10909;53.590;10.054;2023-04-28T12:25:17;18.50;43.60
21495;DHT22;10909;53.590;10.054;2023-04-28T12:28:04;18.40;45.00
21495;DHT22;10909;53.590;10.054;2023-04-28T12:30:36;18.40;44.20
21495;DHT22;10909;53.590;10.054;2023-04-28T12:33:25;18.40;45.40
21495;DHT22;10909;53.590;10.054;2023-04-28T12:35:58;18.40;44.10
21495;DHT22;10909;53.590;10.054;2023-04-28T12:38:24;18.40;45.10
21495;DHT22;10909;53.590;10.054;2023-04-28T12:40:50;18.40;45.10
21495;DHT22;10909;53.590;10.054;2023-04-28T12:43:16;18.40;45.00
21495;DHT22;10909;53.590;10.054;2023-04-28T12:45:43;18.40;45.70
21495;DHT22;10909;53.590;10.054;2023-04-28T12:48:09;18.30;45.30
21495;DHT22;10909;53.590;10.054;2023-04-28T12:50:35;18.30;45.60
21495;DHT22;10909;53.590;10.054;2023-04-28T12:53:02;18.30;45.30
21495;DHT22;10909;53.590;10.054;2023-04-28T12:55:29;18.30;45.30
21495;DHT22;10909;53.590;10.054;2023-04-28T12:58:11;18.30;45.00
21495;DHT22;10909;53.590;10.054;2023-04-28T13:00:36;18.40;44.50
21495;DHT22;10909;53.590;10.054;2023-04-28T13:03:02;18.30;45.30
21495;DHT22;10909;53.590;10.054;2023-04-28T13:05:30;18.20;44.90
21495;DHT22;10909;53.590;10.054;2023-04-28T13:07:56;18.20;45.00
21495;DHT22;10909;53.590;10.054;2023-04-28T13:10:22;18.20;45.40
21495;DHT22;10909;53.590;10.054;2023-04-28T13:12:49;18.20;45.70
21495;DHT22;10909;53.590;10.054;2023-04-28T13:15:14;18.20;45.50
21495;DHT22;10909;53.590;10.054;2023-04-28T13:17:41;18.20;45.50
21495;DHT22;10909;53.590;10.054;2023-04-28T13:20:10;18.20;45.90
21495;DHT22;10909;53.590;10.054;2023-04-28T13:22:36;18.20;45.70
21495;DHT22;10909;53.590;10.054;2023-04-28T13:25:08;18.20;45.80
21495;DHT22;10909;53.590;10.054;2023-04-28T13:27:34;18.20;45.30
21495;DHT22;10909;53.590;10.054;2023-04-28T13:30:00;18.20;45.30
21495;DHT22;10909;53.590;10.054;2023-04-28T13:32:28;18.10;45.40
21495;DHT22;10909;53.590;10.054;2023-04-28T13:34:56;18.10;45.60
21495;DHT22;10909;53.590;10.054;2023-04-28T13:37:21;18.10;45.40
21495;DHT22;10909;53.590;10.054;2023-04-28T13:39:47;18.00;46.10
21495;DHT22;10909;53.590;10.054;2023-04-28T13:42:15;18.00;45.50
21495;DHT22;10909;53.590;10.054;2023-04-28T13:44:59;18.00;45.50
21495;DHT22;10909;53.590;10.054;2023-04-28T13:50:36;17.90;46.10
21495;DHT22;10909;53.590;10.054;2023-04-28T13:53:22;17.90;45.80
21495;DHT22;10909;53.590;10.054;2023-04-28T13:55:52;18.00;46.30
21495;DHT22;10909;53.590;10.054;2023-04-28T13:58:28;17.90;46.80
21495;DHT22;10909;53.590;10.054;2023-04-28T14:00:55;17.90;47.30
21495;DHT22;10909;53.590;10.054;2023-04-28T14:03:23;17.90;47.00
21495;DHT22;10909;53.590;10.054;2023-04-28T14:05:50;17.90;47.10
21495;DHT22;10909;53.590;10.054;2023-04-28T14:08:17;17.90;46.60
21495;DHT22;10909;53.590;10.054;2023-04-28T14:10:43;17.90;46.60
21495;DHT22;10909;53.590;10.054;2023-04-28T14:13:09;17.90;46.60
21495;DHT22;10909;53.590;10.054;2023-04-28T14:15:35;17.90;47.00
21495;DHT22;10909;53.590;10.054;2023-04-28T14:18:01;17.90;47.20
21495;DHT22;10909;53.590;10.054;2023-04-28T14:20:27;17.90;47.20
21495;DHT22;10909;53.590;10.054;2023-04-28T14:22:53;17.90;46.90
21495;DHT22;10909;53.590;10.054;2023-04-28T14:25:19;17.90;46.80
21495;DHT22;10909;53.590;10.054;2023-04-28T14:27:47;18.00;47.10
21495;DHT22;10909;53.590;10.054;2023-04-28T14:30:13;18.00;47.10
21495;DHT22;10909;53.590;10.054;2023-04-28T14:32:39;18.00;47.00
21495;DHT22;10909;53.590;10.054;2023-04-28T14:35:05;18.00;47.20
21495;DHT22;10909;53.590;10.054;2023-04-28T14:37:31;18.00;47.30
21495;DHT22;10909;53.590;10.054;2023-04-28T14:39:58;18.10;47.40
21495;DHT22;10909;53.590;10.054;2023-04-28T14:42:28;18.10;47.20
21495;DHT22;10909;53.590;10.054;2023-04-28T14:44:55;18.10;47.00
21495;DHT22;10909;53.590;10.054;2023-04-28T14:47:21;18.10;47.30
21495;DHT22;10909;53.590;10.054;2023-04-28T14:49:47;18.10;47.40
21495;DHT22;10909;53.590;10.054;2023-04-28T14:52:13;18.10;47.30
21495;DHT22;10909;53.590;10.054;2023-04-28T14:54:39;18.10;47.60
21495;DHT22;10909;53.590;10.054;2023-04-28T14:57:04;18.20;47.70
21495;DHT22;10909;53.590;10.054;2023-04-28T14:59:31;18.20;47.90
21495;DHT22;10909;53.590;10.054;2023-04-28T15:01:59;18.20;48.00
21495;DHT22;10909;53.590;10.054;2023-04-28T15:04:25;18.10;47.90
21495;DHT22;10909;53.590;10.054;2023-04-28T15:06:56;18.10;48.00
21495;DHT22;10909;53.590;10.054;2023-04-28T15:09:23;18.10;48.00
21495;DHT22;10909;53.590;10.054;2023-04-28T15:11:50;18.10;48.10
21495;DHT22;10909;53.590;10.054;2023-04-28T15:14:16;18.00;48.10
21495;DHT22;10909;53.590;10.054;2023-04-28T15:16:42;18.00;48.20
21495;DHT22;10909;53.590;10.054;2023-04-28T15:19:08;17.90;48.40
21495;DHT22;10909;53.590;10.054;2023-04-28T15:21:33;17.90;48.70
21495;DHT22;10909;53.590;10.054;2023-04-28T15:23:59;17.80;48.90
21495;DHT22;10909;53.590;10.054;2023-04-28T15:26:29;17.80;48.90
21495;DHT22;10909;53.590;10.054;2023-04-28T15:28:56;17.80;49.00
21495;DHT22;10909;53.590;10.054;2023-04-28T15:31:22;17.80;49.00
21495;DHT22;10909;53.590;10.054;2023-04-28T15:33:50;17.80;49.10
21495;DHT22;10909;53.590;10.054;2023-04-28T15:36:16;17.80;49.10
21495;DHT22;10909;53.590;10.054;2023-04-28T15:38:43;17.80;49.10
21495;DHT22;10909;53.590;10.054;2023-04-28T15:41:10;17.80;49.00
21495;DHT22;10909;53.590;10.054;2023-04-28T15:43:36;17.80;49.20
21495;DHT22;10909;53.590;10.054;2023-04-28T15:46:04;17.80;49.30
21495;DHT22;10909;53.590;10.054;2023-04-28T15:48:33;17.80;49.50
21495;DHT22;10909;53.590;10.054;2023-04-28T15:50:58;17.70;49.50
21495;DHT22;10909;53.590;10.054;2023-04-28T15:53:24;17.70;49.50
21495;DHT22;10909;53.590;10.054;2023-04-28T15:55:52;17.70;49.60